sensor_id;sensor_type;location;lat;lon;timestamp;P1;durP1;ratioP1;P2;durP2;ratioP2
49514;SDS011;35415;47.870;16.058;2023-04-30T00:00:52;5.13;;;4.63;;
49514;SDS011;35415;47.870;16.058;2023-04-30T00:03:19;4.68;;;4.25;;
49514;SDS011;35415;47.870;16.058;2023-04-30T00:05:49;4.93;;;3.97;;
49514;SDS011;35415;47.870;16.058;2023-04-30T00:08:18;5.20;;;4.20;;
49514;SDS011;35415;47.870;16.058;2023-04-30T00:10:45;4.75;;;4.20;;
49514;SDS011;35415;47.870;16.058;2023-04-30T00:13:12;5.95;;;4.82;;
49514;SDS011;35415;47.870;16.058;2023-04-30T00:15:40;6.65;;;4.60;;
49514;SDS011;35415;47.870;16.058;2023-04-30T00:18:07;5.32;;;4.75;;
49514;SDS011;35415;47.870;16.058;2023-04-30T00:20:35;6.18;;;4.88;;
49514;SDS011;35415;47.870;16.058;2023-04-30T00:23:01;7.07;;;4.90;;
49514;SDS011;35415;47.870;16.058;2023-04-30T00:25:28;6.45;;;5.40;;
49514;SDS011;35415;47.870;16.058;2023-04-30T00:27:55;5.60;;;4.25;;
49514;SDS011;35415;47.870;16.058;2023-04-30T00:30:22;7.22;;;5.32;;
49514;SDS011;35415;47.870;16.058;2023-04-30T00:32:51;6.20;;;5.43;;
49514;SDS011;35415;47.870;16.058;2023-04-30T00:35:18;6.03;;;5.30;;
49514;SDS011;35415;47.870;16.058;2023-04-30T00:37:44;6.13;;;4.70;;
49514;SDS011;35415;47.870;16.058;2023-04-30T00:40:12;5.95;;;5.20;;
49514;SDS011;35415;47.870;16.058;2023-04-30T00:42:39;6.53;;;5.07;;
49514;SDS011;35415;47.870;16.058;2023-04-30T00:45:06;7.18;;;5.38;;
49514;SDS011;35415;47.870;16.058;2023-04-30T00:47:34;5.88;;;5.18;;
49514;SDS011;35415;47.870;16.058;2023-04-30T00:50:02;5.72;;;5.00;;
49514;SDS011;35415;47.870;16.058;2023-04-30T00:52:30;6.63;;;5.00;;
49514;SDS011;35415;47.870;16.058;2023-04-30T00:54:57;5.65;;;5.05;;
49514;SDS011;35415;47.870;16.058;2023-04-30T00:57:24;6.38;;;5.32;;
49514;SDS011;35415;47.870;16.058;2023-04-30T00:59:52;5.85;;;5.25;;
49514;SDS011;35415;47.870;16.058;2023-04-30T01:02:21;6.40;;;4.72;;
49514;SDS011;35415;47.870;16.058;2023-04-30T01:04:48;5.88;;;4.82;;
49514;SDS011;35415;47.870;16.058;2023-04-30T01:07:18;5.30;;;4.60;;
49514;SDS011;35415;47.870;16.058;2023-04-30T01:09:45;5.50;;;4.95;;
49514;SDS011;35415;47.870;16.058;2023-04-30T01:12:14;5.63;;;4.80;;
49514;SDS011;35415;47.870;16.058;2023-04-30T01:14:51;5.60;;;4.22;;
49514;SDS011;35415;47.870;16.058;2023-04-30T01:17:31;4.93;;;4.10;;
49514;SDS011;35415;47.870;16.058;2023-04-30T01:20:04;5.65;;;4.45;;
49514;SDS011;35415;47.870;16.058;2023-04-30T01:22:40;5.10;;;4.57;;
49514;SDS011;35415;47.870;16.058;2023-04-30T01:25:17;5.72;;;5.13;;
49514;SDS011;35415;47.870;16.058;2023-04-30T01:28:00;5.75;;;4.95;;
49514;SDS011;35415;47.870;16.058;2023-04-30T01:30:29;5.57;;;5.03;;
49514;SDS011;35415;47.870;16.058;2023-04-30T01:32:57;6.50;;;4.95;;
49514;SDS011;35415;47.870;16.058;2023-04-30T01:35:26;5.22;;;4.72;;
49514;SDS011;35415;47.870;16.058;2023-04-30T01:38:10;4.18;;;3.78;;
49514;SDS011;35415;47.870;16.058;2023-04-30T01:40:47;5.63;;;4.63;;
49514;SDS011;35415;47.870;16.058;2023-04-30T01:43:24;5.05;;;4.38;;
49514;SDS011;35415;47.870;16.058;2023-04-30T01:46:01;5.45;;;4.57;;
49514;SDS011;35415;47.870;16.058;2023-04-30T01:48:39;5.40;;;4.40;;
49514;SDS011;35415;47.870;16.058;2023-04-30T01:51:22;5.55;;;4.47;;
49514;SDS011;35415;47.870;16.058;2023-04-30T01:53:55;5.47;;;4.20;;
49514;SDS011;35415;47.870;16.058;2023-04-30T01:56:26;5.78;;;4.22;;
49514;SDS011;35415;47.870;16.058;2023-04-30T01:58:58;6.07;;;4.35;;
49514;SDS011;35415;47.870;16.058;2023-04-30T02:01:27;5.05;;;3.88;;
49514;SDS011;35415;47.870;16.058;2023-04-30T02:03:55;5.68;;;4.32;;
49514;SDS011;35415;47.870;16.058;2023-04-30T02:06:23;4.93;;;4.13;;
49514;SDS011;35415;47.870;16.058;2023-04-30T02:08:52;5.30;;;3.92;;
49514;SDS011;35415;47.870;16.058;2023-04-30T02:11:27;4.88;;;3.88;;
49514;SDS011;35415;47.870;16.058;2023-04-30T02:13:56;5.95;;;4.03;;
49514;SDS011;35415;47.870;16.058;2023-04-30T02:16:25;5.57;;;4.30;;
49514;SDS011;35415;47.870;16.058;2023-04-30T02:18:52;4.50;;;3.92;;
49514;SDS011;35415;47.870;16.058;2023-04-30T02:21:18;4.55;;;3.80;;
49514;SDS011;35415;47.870;16.058;2023-04-30T02:23:45;5.25;;;4.18;;
49514;SDS011;35415;47.870;16.058;2023-04-30T02:26:12;4.93;;;3.72;;
49514;SDS011;35415;47.870;16.058;2023-04-30T02:28:39;5.60;;;4.35;;
49514;SDS011;35415;47.870;16.058;2023-04-30T02:31:06;5.88;;;4.65;;
49514;SDS011;35415;47.870;16.058;2023-04-30T02:33:35;7.22;;;5.10;;
49514;SDS011;35415;47.870;16.058;2023-04-30T02:36:02;8.00;;;5.13;;
49514;SDS011;35415;47.870;16.058;2023-04-30T02:38:29;10.43;;;6.35;;
49514;SDS011;35415;47.870;16.058;2023-04-30T02:40:56;9.52;;;5.57;;
49514;SDS011;35415;47.870;16.058;2023-04-30T02:43:23;7.63;;;5.18;;
49514;SDS011;35415;47.870;16.058;2023-04-30T02:45:50;6.72;;;4.80;;
49514;SDS011;35415;47.870;16.058;2023-04-30T02:48:16;8.13;;;5.25;;
49514;SDS011;35415;47.870;16.058;2023-04-30T02:50:45;7.30;;;5.55;;
49514;SDS011;35415;47.870;16.058;2023-04-30T02:53:12;8.18;;;5.60;;
49514;SDS011;35415;47.870;16.058;2023-04-30T02:55:39;8.98;;;5.50;;
49514;SDS011;35415;47.870;16.058;2023-04-30T02:58:05;9.10;;;5.70;;
49514;SDS011;35415;47.870;16.058;2023-04-30T03:00:32;7.50;;;4.97;;
49514;SDS011;35415;47.870;16.058;2023-04-30T03:03:00;8.18;;;5.25;;
49514;SDS011;35415;47.870;16.058;2023-04-30T03:05:27;9.05;;;6.00;;
49514;SDS011;35415;47.870;16.058;2023-04-30T03:07:55;10.40;;;6.80;;
49514;SDS011;35415;47.870;16.058;2023-04-30T03:10:22;7.47;;;5.40;;
49514;SDS011;35415;47.870;16.058;2023-04-30T03:12:49;9.32;;;5.78;;
49514;SDS011;35415;47.870;16.058;2023-04-30T03:15:16;9.85;;;5.90;;
49514;SDS011;35415;47.870;16.058;2023-04-30T03:17:43;10.25;;;5.75;;
49514;SDS011;35415;47.870;16.058;2023-04-30T03:20:10;8.05;;;5.47;;
49514;SDS011;35415;47.870;16.058;2023-04-30T03:22:38;7.78;;;5.22;;
49514;SDS011;35415;47.870;16.058;2023-04-30T03:25:07;10.20;;;5.57;;
49514;SDS011;35415;47.870;16.058;2023-04-30T03:27:35;9.88;;;5.45;;
49514;SDS011;35415;47.870;16.058;2023-04-30T03:30:03;10.05;;;5.97;;
49514;SDS011;35415;47.870;16.058;2023-04-30T03:32:31;7.22;;;5.45;;
49514;SDS011;35415;47.870;16.058;2023-04-30T03:34:58;9.35;;;5.18;;
49514;SDS011;35415;47.870;16.058;2023-04-30T03:37:25;7.72;;;5.60;;
49514;SDS011;35415;47.870;16.058;2023-04-30T03:39:52;9.00;;;5.90;;
49514;SDS011;35415;47.870;16.058;2023-04-30T03:42:21;7.20;;;5.45;;
49514;SDS011;35415;47.870;16.058;2023-04-30T03:44:48;9.15;;;6.40;;
49514;SDS011;35415;47.870;16.058;2023-04-30T03:47:14;7.75;;;6.00;;
49514;SDS011;35415;47.870;16.058;2023-04-30T03:49:41;10.18;;;6.10;;
49514;SDS011;35415;47.870;16.058;2023-04-30T03:52:09;9.25;;;6.20;;
49514;SDS011;35415;47.870;16.058;2023-04-30T03:54:36;8.07;;;6.00;;
49514;SDS011;35415;47.870;16.058;2023-04-30T03:57:03;8.70;;;6.18;;
49514;SDS011;35415;47.870;16.058;2023-04-30T03:59:33;9.70;;;7.00;;
49514;SDS011;35415;47.870;16.058;2023-04-30T04:02:00;9.50;;;6.18;;
49514;SDS011;35415;47.870;16.058;2023-04-30T04:04:27;8.57;;;6.40;;
49514;SDS011;35415;47.870;16.058;2023-04-30T04:06:57;11.75;;;6.10;;
49514;SDS011;35415;47.870;16.058;2023-04-30T04:09:25;9.50;;;5.90;;
49514;SDS011;35415;47.870;16.058;2023-04-30T04:11:58;10.50;;;6.70;;
49514;SDS011;35415;47.870;16.058;2023-04-30T04:14:25;9.02;;;6.03;;
49514;SDS011;35415;47.870;16.058;2023-04-30T04:16:54;7.85;;;5.72;;
49514;SDS011;35415;47.870;16.058;2023-04-30T04:19:24;7.72;;;5.47;;
49514;SDS011;35415;47.870;16.058;2023-04-30T04:21:51;9.30;;;6.43;;
49514;SDS011;35415;47.870;16.058;2023-04-30T04:24:18;8.70;;;5.60;;
49514;SDS011;35415;47.870;16.058;2023-04-30T04:26:45;7.93;;;6.18;;
49514;SDS011;35415;47.870;16.058;2023-04-30T04:29:12;8.13;;;5.82;;
49514;SDS011;35415;47.870;16.058;2023-04-30T04:31:39;9.52;;;5.88;;
49514;SDS011;35415;47.870;16.058;2023-04-30T04:34:08;6.93;;;5.25;;
49514;SDS011;35415;47.870;16.058;2023-04-30T04:36:35;8.15;;;5.63;;
49514;SDS011;35415;47.870;16.058;2023-04-30T04:39:03;8.50;;;5.07;;
49514;SDS011;35415;47.870;16.058;2023-04-30T04:41:30;9.07;;;6.13;;
49514;SDS011;35415;47.870;16.058;2023-04-30T04:43:58;10.93;;;5.95;;
49514;SDS011;35415;47.870;16.058;2023-04-30T04:46:26;9.43;;;5.60;;
49514;SDS011;35415;47.870;16.058;2023-04-30T04:48:55;6.63;;;5.32;;
49514;SDS011;35415;47.870;16.058;2023-04-30T04:51:24;8.57;;;5.80;;
49514;SDS011;35415;47.870;16.058;2023-04-30T04:53:52;7.32;;;5.60;;
49514;SDS011;35415;47.870;16.058;2023-04-30T04:56:19;9.73;;;5.80;;
49514;SDS011;35415;47.870;16.058;2023-04-30T04:58:46;8.70;;;5.88;;
49514;SDS011;35415;47.870;16.058;2023-04-30T05:01:13;9.63;;;5.80;;
49514;SDS011;35415;47.870;16.058;2023-04-30T05:03:40;9.73;;;5.10;;
49514;SDS011;35415;47.870;16.058;2023-04-30T05:06:07;7.32;;;5.30;;
49514;SDS011;35415;47.870;16.058;2023-04-30T05:08:35;8.27;;;5.60;;
49514;SDS011;35415;47.870;16.058;2023-04-30T05:11:02;9.25;;;6.10;;
49514;SDS011;35415;47.870;16.058;2023-04-30T05:13:29;8.95;;;6.13;;
49514;SDS011;35415;47.870;16.058;2023-04-30T05:15:56;7.32;;;5.90;;
49514;SDS011;35415;47.870;16.058;2023-04-30T05:18:24;22.92;;;7.50;;
49514;SDS011;35415;47.870;16.058;2023-04-30T05:20:51;11.15;;;6.93;;
49514;SDS011;35415;47.870;16.058;2023-04-30T05:23:18;8.18;;;6.38;;
49514;SDS011;35415;47.870;16.058;2023-04-30T05:25:49;10.20;;;6.85;;
49514;SDS011;35415;47.870;16.058;2023-04-30T05:28:17;11.40;;;7.18;;
49514;SDS011;35415;47.870;16.058;2023-04-30T05:30:45;11.15;;;7.55;;
49514;SDS011;35415;47.870;16.058;2023-04-30T05:33:12;10.60;;;7.10;;
49514;SDS011;35415;47.870;16.058;2023-04-30T05:35:39;9.05;;;6.20;;
49514;SDS011;35415;47.870;16.058;2023-04-30T05:38:06;7.85;;;6.13;;
49514;SDS011;35415;47.870;16.058;2023-04-30T05:40:33;10.63;;;6.38;;
49514;SDS011;35415;47.870;16.058;2023-04-30T05:43:01;7.85;;;5.60;;
49514;SDS011;35415;47.870;16.058;2023-04-30T05:45:29;6.63;;;5.38;;
49514;SDS011;35415;47.870;16.058;2023-04-30T05:47:56;10.13;;;5.95;;
49514;SDS011;35415;47.870;16.058;2023-04-30T05:50:23;7.47;;;5.45;;
49514;SDS011;35415;47.870;16.058;2023-04-30T05:52:50;8.07;;;5.50;;
49514;SDS011;35415;47.870;16.058;2023-04-30T05:55:17;8.38;;;5.47;;
49514;SDS011;35415;47.870;16.058;2023-04-30T05:57:44;7.72;;;5.10;;
49514;SDS011;35415;47.870;16.058;2023-04-30T06:00:13;8.77;;;5.40;;
49514;SDS011;35415;47.870;16.058;2023-04-30T06:02:41;7.72;;;5.35;;
49514;SDS011;35415;47.870;16.058;2023-04-30T06:05:11;9.07;;;5.30;;
49514;SDS011;35415;47.870;16.058;2023-04-30T06:07:38;7.40;;;5.65;;
49514;SDS011;35415;47.870;16.058;2023-04-30T06:10:05;7.10;;;4.88;;
49514;SDS011;35415;47.870;16.058;2023-04-30T06:12:37;8.15;;;5.38;;
49514;SDS011;35415;47.870;16.058;2023-04-30T06:15:19;10.60;;;5.47;;
49514;SDS011;35415;47.870;16.058;2023-04-30T06:17:47;9.68;;;6.40;;
49514;SDS011;35415;47.870;16.058;2023-04-30T06:20:15;9.32;;;5.38;;
49514;SDS011;35415;47.870;16.058;2023-04-30T06:22:43;9.32;;;6.50;;
49514;SDS011;35415;47.870;16.058;2023-04-30T06:25:12;9.13;;;5.53;;
49514;SDS011;35415;47.870;16.058;2023-04-30T06:27:39;7.00;;;5.43;;
49514;SDS011;35415;47.870;16.058;2023-04-30T06:30:06;6.90;;;5.15;;
49514;SDS011;35415;47.870;16.058;2023-04-30T06:32:38;9.10;;;5.15;;
49514;SDS011;35415;47.870;16.058;2023-04-30T06:35:05;6.97;;;5.13;;
49514;SDS011;35415;47.870;16.058;2023-04-30T06:37:37;8.35;;;5.47;;
49514;SDS011;35415;47.870;16.058;2023-04-30T06:40:05;5.90;;;4.72;;
49514;SDS011;35415;47.870;16.058;2023-04-30T06:42:41;6.28;;;5.10;;
49514;SDS011;35415;47.870;16.058;2023-04-30T06:45:11;8.48;;;5.15;;
49514;SDS011;35415;47.870;16.058;2023-04-30T06:47:40;5.82;;;4.70;;
49514;SDS011;35415;47.870;16.058;2023-04-30T06:50:10;8.73;;;5.32;;
49514;SDS011;35415;47.870;16.058;2023-04-30T06:52:37;6.93;;;5.18;;
49514;SDS011;35415;47.870;16.058;2023-04-30T06:55:04;5.90;;;4.85;;
49514;SDS011;35415;47.870;16.058;2023-04-30T06:57:31;7.03;;;4.55;;
49514;SDS011;35415;47.870;16.058;2023-04-30T06:59:58;6.97;;;4.90;;
49514;SDS011;35415;47.870;16.058;2023-04-30T07:02:26;8.07;;;4.82;;
49514;SDS011;35415;47.870;16.058;2023-04-30T07:04:54;6.47;;;4.78;;
49514;SDS011;35415;47.870;16.058;2023-04-30T07:07:21;8.20;;;4.70;;
49514;SDS011;35415;47.870;16.058;2023-04-30T07:09:48;8.82;;;4.78;;
49514;SDS011;35415;47.870;16.058;2023-04-30T07:12:16;7.97;;;4.75;;
49514;SDS011;35415;47.870;16.058;2023-04-30T07:14:43;6.18;;;4.70;;
49514;SDS011;35415;47.870;16.058;2023-04-30T07:17:17;6.40;;;4.63;;
49514;SDS011;35415;47.870;16.058;2023-04-30T07:19:58;6.07;;;4.65;;
49514;SDS011;35415;47.870;16.058;2023-04-30T07:22:25;7.35;;;4.97;;
49514;SDS011;35415;47.870;16.058;2023-04-30T07:24:53;6.68;;;4.45;;
49514;SDS011;35415;47.870;16.058;2023-04-30T07:27:20;7.38;;;4.72;;
49514;SDS011;35415;47.870;16.058;2023-04-30T07:29:47;7.00;;;4.80;;
49514;SDS011;35415;47.870;16.058;2023-04-30T07:32:14;9.02;;;5.00;;
49514;SDS011;35415;47.870;16.058;2023-04-30T07:34:41;6.30;;;4.35;;
49514;SDS011;35415;47.870;16.058;2023-04-30T07:37:10;8.30;;;5.30;;
49514;SDS011;35415;47.870;16.058;2023-04-30T07:39:38;7.72;;;4.55;;
49514;SDS011;35415;47.870;16.058;2023-04-30T07:42:06;6.15;;;5.45;;
49514;SDS011;35415;47.870;16.058;2023-04-30T07:44:32;8.75;;;4.88;;
49514;SDS011;35415;47.870;16.058;2023-04-30T07:46:59;6.47;;;4.38;;
49514;SDS011;35415;47.870;16.058;2023-04-30T07:49:26;6.55;;;3.78;;
49514;SDS011;35415;47.870;16.058;2023-04-30T07:51:53;7.78;;;4.45;;
49514;SDS011;35415;47.870;16.058;2023-04-30T07:54:22;7.35;;;4.45;;
49514;SDS011;35415;47.870;16.058;2023-04-30T07:56:49;5.63;;;4.43;;
49514;SDS011;35415;47.870;16.058;2023-04-30T07:59:16;6.07;;;3.85;;
49514;SDS011;35415;47.870;16.058;2023-04-30T08:01:45;8.40;;;3.88;;
49514;SDS011;35415;47.870;16.058;2023-04-30T08:04:12;6.15;;;4.28;;
49514;SDS011;35415;47.870;16.058;2023-04-30T08:06:39;5.00;;;3.90;;
49514;SDS011;35415;47.870;16.058;2023-04-30T08:09:06;7.07;;;4.60;;
49514;SDS011;35415;47.870;16.058;2023-04-30T08:11:35;6.18;;;4.07;;
49514;SDS011;35415;47.870;16.058;2023-04-30T08:17:01;7.40;;;4.22;;
49514;SDS011;35415;47.870;16.058;2023-04-30T08:19:28;4.88;;;4.30;;
49514;SDS011;35415;47.870;16.058;2023-04-30T08:21:55;7.32;;;4.32;;
49514;SDS011;35415;47.870;16.058;2023-04-30T08:24:22;4.88;;;3.45;;
49514;SDS011;35415;47.870;16.058;2023-04-30T08:26:53;4.95;;;4.07;;
49514;SDS011;35415;47.870;16.058;2023-04-30T08:29:20;5.43;;;4.30;;
49514;SDS011;35415;47.870;16.058;2023-04-30T08:31:47;6.32;;;4.32;;
49514;SDS011;35415;47.870;16.058;2023-04-30T08:34:14;6.03;;;4.93;;
49514;SDS011;35415;47.870;16.058;2023-04-30T08:36:41;6.65;;;4.38;;
49514;SDS011;35415;47.870;16.058;2023-04-30T08:39:09;7.40;;;4.05;;
49514;SDS011;35415;47.870;16.058;2023-04-30T08:41:37;5.20;;;4.40;;
49514;SDS011;35415;47.870;16.058;2023-04-30T08:44:06;8.30;;;4.80;;
49514;SDS011;35415;47.870;16.058;2023-04-30T08:46:36;5.90;;;4.72;;
49514;SDS011;35415;47.870;16.058;2023-04-30T08:49:04;4.72;;;4.25;;
49514;SDS011;35415;47.870;16.058;2023-04-30T08:51:31;5.68;;;4.25;;
49514;SDS011;35415;47.870;16.058;2023-04-30T08:53:59;4.95;;;4.22;;
49514;SDS011;35415;47.870;16.058;2023-04-30T08:56:29;6.07;;;4.47;;
49514;SDS011;35415;47.870;16.058;2023-04-30T08:58:57;5.90;;;4.03;;
49514;SDS011;35415;47.870;16.058;2023-04-30T09:01:26;7.53;;;4.45;;
49514;SDS011;35415;47.870;16.058;2023-04-30T09:03:54;5.75;;;4.15;;
49514;SDS011;35415;47.870;16.058;2023-04-30T09:06:21;7.65;;;4.13;;
49514;SDS011;35415;47.870;16.058;2023-04-30T09:08:48;4.63;;;4.07;;
49514;SDS011;35415;47.870;16.058;2023-04-30T09:11:21;5.45;;;4.10;;
49514;SDS011;35415;47.870;16.058;2023-04-30T09:13:52;7.15;;;4.82;;
49514;SDS011;35415;47.870;16.058;2023-04-30T09:16:21;6.20;;;4.53;;
49514;SDS011;35415;47.870;16.058;2023-04-30T09:18:51;7.40;;;4.88;;
49514;SDS011;35415;47.870;16.058;2023-04-30T09:21:29;7.07;;;4.78;;
49514;SDS011;35415;47.870;16.058;2023-04-30T09:23:58;6.38;;;4.55;;
49514;SDS011;35415;47.870;16.058;2023-04-30T09:26:26;6.78;;;4.10;;
49514;SDS011;35415;47.870;16.058;2023-04-30T09:28:57;6.80;;;5.57;;
49514;SDS011;35415;47.870;16.058;2023-04-30T09:31:27;10.98;;;4.95;;
49514;SDS011;35415;47.870;16.058;2023-04-30T09:33:56;7.68;;;4.70;;
49514;SDS011;35415;47.870;16.058;2023-04-30T09:36:22;4.72;;;4.03;;
49514;SDS011;35415;47.870;16.058;2023-04-30T09:38:50;6.07;;;4.18;;
49514;SDS011;35415;47.870;16.058;2023-04-30T09:41:20;7.80;;;4.75;;
49514;SDS011;35415;47.870;16.058;2023-04-30T09:43:49;6.35;;;4.55;;
49514;SDS011;35415;47.870;16.058;2023-04-30T09:46:17;5.65;;;4.00;;
49514;SDS011;35415;47.870;16.058;2023-04-30T09:48:46;6.03;;;4.72;;
49514;SDS011;35415;47.870;16.058;2023-04-30T09:51:16;6.97;;;4.90;;
49514;SDS011;35415;47.870;16.058;2023-04-30T09:53:46;7.60;;;5.60;;
49514;SDS011;35415;47.870;16.058;2023-04-30T09:56:14;5.38;;;4.32;;
49514;SDS011;35415;47.870;16.058;2023-04-30T09:58:49;6.05;;;4.55;;
49514;SDS011;35415;47.870;16.058;2023-04-30T10:01:18;7.35;;;5.20;;
49514;SDS011;35415;47.870;16.058;2023-04-30T10:03:45;8.45;;;5.30;;
49514;SDS011;35415;47.870;16.058;2023-04-30T10:06:13;6.13;;;5.00;;
49514;SDS011;35415;47.870;16.058;2023-04-30T10:08:45;7.40;;;5.22;;
49514;SDS011;35415;47.870;16.058;2023-04-30T10:11:14;6.10;;;4.82;;
49514;SDS011;35415;47.870;16.058;2023-04-30T10:13:48;7.55;;;4.82;;
49514;SDS011;35415;47.870;16.058;2023-04-30T10:16:23;7.40;;;5.13;;
49514;SDS011;35415;47.870;16.058;2023-04-30T10:18:56;10.00;;;5.45;;
49514;SDS011;35415;47.870;16.058;2023-04-30T10:21:27;6.38;;;4.70;;
49514;SDS011;35415;47.870;16.058;2023-04-30T10:23:54;6.30;;;4.90;;
49514;SDS011;35415;47.870;16.058;2023-04-30T10:26:21;8.05;;;5.78;;
49514;SDS011;35415;47.870;16.058;2023-04-30T10:28:50;6.85;;;5.38;;
49514;SDS011;35415;47.870;16.058;2023-04-30T10:31:19;7.57;;;5.90;;
49514;SDS011;35415;47.870;16.058;2023-04-30T10:33:50;8.88;;;5.68;;
49514;SDS011;35415;47.870;16.058;2023-04-30T10:36:27;9.35;;;5.93;;
49514;SDS011;35415;47.870;16.058;2023-04-30T10:39:02;8.00;;;5.30;;
49514;SDS011;35415;47.870;16.058;2023-04-30T10:41:31;7.53;;;5.55;;
49514;SDS011;35415;47.870;16.058;2023-04-30T10:44:00;7.43;;;5.50;;
49514;SDS011;35415;47.870;16.058;2023-04-30T10:46:29;8.07;;;5.50;;
49514;SDS011;35415;47.870;16.058;2023-04-30T10:48:56;7.78;;;5.75;;
49514;SDS011;35415;47.870;16.058;2023-04-30T10:51:25;6.47;;;5.40;;
49514;SDS011;35415;47.870;16.058;2023-04-30T10:54:12;8.02;;;5.95;;
49514;SDS011;35415;47.870;16.058;2023-04-30T10:56:44;12.43;;;5.78;;
49514;SDS011;35415;47.870;16.058;2023-04-30T10:59:13;7.45;;;5.88;;
49514;SDS011;35415;47.870;16.058;2023-04-30T11:01:55;8.43;;;5.53;;
49514;SDS011;35415;47.870;16.058;2023-04-30T11:04:24;6.00;;;5.18;;
49514;SDS011;35415;47.870;16.058;2023-04-30T11:09:41;6.18;;;5.05;;
49514;SDS011;35415;47.870;16.058;2023-04-30T11:12:14;6.47;;;5.13;;
49514;SDS011;35415;47.870;16.058;2023-04-30T11:14:42;6.57;;;5.10;;
49514;SDS011;35415;47.870;16.058;2023-04-30T11:17:11;7.40;;;4.97;;
49514;SDS011;35415;47.870;16.058;2023-04-30T11:19:45;7.55;;;4.82;;
49514;SDS011;35415;47.870;16.058;2023-04-30T11:22:16;6.88;;;4.70;;
49514;SDS011;35415;47.870;16.058;2023-04-30T11:24:59;8.38;;;4.72;;
49514;SDS011;35415;47.870;16.058;2023-04-30T11:27:30;5.57;;;4.28;;
49514;SDS011;35415;47.870;16.058;2023-04-30T11:29:58;9.18;;;4.85;;
49514;SDS011;35415;47.870;16.058;2023-04-30T11:32:31;7.50;;;5.30;;
49514;SDS011;35415;47.870;16.058;2023-04-30T11:34:59;7.65;;;5.47;;
49514;SDS011;35415;47.870;16.058;2023-04-30T11:37:30;6.70;;;5.20;;
49514;SDS011;35415;47.870;16.058;2023-04-30T11:39:59;5.57;;;3.83;;
49514;SDS011;35415;47.870;16.058;2023-04-30T11:42:28;5.93;;;4.88;;
49514;SDS011;35415;47.870;16.058;2023-04-30T11:45:02;7.32;;;4.40;;
49514;SDS011;35415;47.870;16.058;2023-04-30T11:47:40;4.35;;;3.90;;
49514;SDS011;35415;47.870;16.058;2023-04-30T11:50:08;6.25;;;4.05;;
49514;SDS011;35415;47.870;16.058;2023-04-30T11:52:38;6.22;;;4.43;;
49514;SDS011;35415;47.870;16.058;2023-04-30T11:55:07;6.75;;;3.92;;
49514;SDS011;35415;47.870;16.058;2023-04-30T11:57:41;7.05;;;3.78;;
49514;SDS011;35415;47.870;16.058;2023-04-30T12:00:11;4.38;;;3.70;;
49514;SDS011;35415;47.870;16.058;2023-04-30T12:02:39;7.40;;;3.85;;
49514;SDS011;35415;47.870;16.058;2023-04-30T12:05:14;5.43;;;4.00;;
49514;SDS011;35415;47.870;16.058;2023-04-30T12:07:49;5.63;;;3.67;;
49514;SDS011;35415;47.870;16.058;2023-04-30T12:10:18;6.40;;;4.07;;
49514;SDS011;35415;47.870;16.058;2023-04-30T12:12:46;5.15;;;3.90;;
49514;SDS011;35415;47.870;16.058;2023-04-30T12:15:14;7.45;;;6.30;;
49514;SDS011;35415;47.870;16.058;2023-04-30T12:17:43;6.32;;;3.78;;
49514;SDS011;35415;47.870;16.058;2023-04-30T12:20:11;4.18;;;3.38;;
49514;SDS011;35415;47.870;16.058;2023-04-30T12:22:39;4.07;;;3.05;;
49514;SDS011;35415;47.870;16.058;2023-04-30T12:25:10;5.85;;;3.58;;
49514;SDS011;35415;47.870;16.058;2023-04-30T12:27:39;3.75;;;2.97;;
49514;SDS011;35415;47.870;16.058;2023-04-30T12:30:07;5.32;;;3.17;;
49514;SDS011;35415;47.870;16.058;2023-04-30T12:32:41;4.10;;;3.58;;
49514;SDS011;35415;47.870;16.058;2023-04-30T12:35:13;3.65;;;3.17;;
49514;SDS011;35415;47.870;16.058;2023-04-30T12:37:41;7.68;;;4.20;;
49514;SDS011;35415;47.870;16.058;2023-04-30T12:40:12;4.40;;;3.47;;
49514;SDS011;35415;47.870;16.058;2023-04-30T12:42:40;6.20;;;3.35;;
49514;SDS011;35415;47.870;16.058;2023-04-30T12:45:09;4.63;;;3.35;;
49514;SDS011;35415;47.870;16.058;2023-04-30T12:47:37;5.25;;;3.63;;
49514;SDS011;35415;47.870;16.058;2023-04-30T12:50:09;4.93;;;3.53;;
49514;SDS011;35415;47.870;16.058;2023-04-30T12:52:38;4.70;;;3.10;;
49514;SDS011;35415;47.870;16.058;2023-04-30T12:55:17;5.00;;;3.70;;
49514;SDS011;35415;47.870;16.058;2023-04-30T12:58:03;4.03;;;3.22;;
49514;SDS011;35415;47.870;16.058;2023-04-30T13:00:45;3.75;;;3.03;;
49514;SDS011;35415;47.870;16.058;2023-04-30T13:03:13;3.45;;;2.80;;
49514;SDS011;35415;47.870;16.058;2023-04-30T13:05:41;3.25;;;2.60;;
49514;SDS011;35415;47.870;16.058;2023-04-30T13:08:12;3.78;;;3.10;;
49514;SDS011;35415;47.870;16.058;2023-04-30T13:10:40;7.47;;;3.10;;
49514;SDS011;35415;47.870;16.058;2023-04-30T13:13:07;3.25;;;2.72;;
49514;SDS011;35415;47.870;16.058;2023-04-30T13:15:34;5.82;;;2.83;;
49514;SDS011;35415;47.870;16.058;2023-04-30T13:18:03;3.72;;;2.50;;
49514;SDS011;35415;47.870;16.058;2023-04-30T13:20:32;6.18;;;2.40;;
49514;SDS011;35415;47.870;16.058;2023-04-30T13:23:00;4.68;;;2.92;;
49514;SDS011;35415;47.870;16.058;2023-04-30T13:25:27;4.30;;;2.50;;
49514;SDS011;35415;47.870;16.058;2023-04-30T13:27:55;2.67;;;2.33;;
49514;SDS011;35415;47.870;16.058;2023-04-30T13:30:22;4.38;;;2.58;;
49514;SDS011;35415;47.870;16.058;2023-04-30T13:32:50;4.40;;;2.50;;
49514;SDS011;35415;47.870;16.058;2023-04-30T13:35:18;2.80;;;2.50;;
49514;SDS011;35415;47.870;16.058;2023-04-30T13:37:46;3.00;;;2.35;;
49514;SDS011;35415;47.870;16.058;2023-04-30T13:40:13;3.53;;;2.53;;
49514;SDS011;35415;47.870;16.058;2023-04-30T13:42:41;6.22;;;3.05;;
49514;SDS011;35415;47.870;16.058;2023-04-30T13:45:10;7.03;;;4.90;;
49514;SDS011;35415;47.870;16.058;2023-04-30T13:47:38;10.10;;;4.65;;
49514;SDS011;35415;47.870;16.058;2023-04-30T13:50:05;3.65;;;3.10;;
49514;SDS011;35415;47.870;16.058;2023-04-30T13:52:33;4.10;;;2.67;;
49514;SDS011;35415;47.870;16.058;2023-04-30T13:55:01;5.00;;;2.72;;
49514;SDS011;35415;47.870;16.058;2023-04-30T13:57:29;3.53;;;2.65;;
49514;SDS011;35415;47.870;16.058;2023-04-30T13:59:57;3.08;;;2.75;;
49514;SDS011;35415;47.870;16.058;2023-04-30T14:02:26;3.55;;;2.75;;
49514;SDS011;35415;47.870;16.058;2023-04-30T14:04:53;4.25;;;2.63;;
49514;SDS011;35415;47.870;16.058;2023-04-30T14:07:22;3.28;;;2.97;;
49514;SDS011;35415;47.870;16.058;2023-04-30T14:09:49;6.45;;;2.47;;
49514;SDS011;35415;47.870;16.058;2023-04-30T14:12:16;5.28;;;2.95;;
49514;SDS011;35415;47.870;16.058;2023-04-30T14:14:45;3.05;;;2.75;;
49514;SDS011;35415;47.870;16.058;2023-04-30T14:17:12;2.97;;;2.08;;
49514;SDS011;35415;47.870;16.058;2023-04-30T14:19:41;4.78;;;2.65;;
49514;SDS011;35415;47.870;16.058;2023-04-30T14:22:08;3.42;;;2.40;;
49514;SDS011;35415;47.870;16.058;2023-04-30T14:24:36;2.97;;;2.38;;
49514;SDS011;35415;47.870;16.058;2023-04-30T14:27:03;3.58;;;2.78;;
49514;SDS011;35415;47.870;16.058;2023-04-30T14:29:30;3.17;;;2.67;;
49514;SDS011;35415;47.870;16.058;2023-04-30T14:31:59;4.65;;;2.45;;
49514;SDS011;35415;47.870;16.058;2023-04-30T14:34:26;3.17;;;2.37;;
49514;SDS011;35415;47.870;16.058;2023-04-30T14:36:55;3.88;;;2.53;;
49514;SDS011;35415;47.870;16.058;2023-04-30T14:39:23;3.92;;;2.60;;
49514;SDS011;35415;47.870;16.058;2023-04-30T14:41:51;2.50;;;2.17;;
49514;SDS011;35415;47.870;16.058;2023-04-30T14:44:18;5.50;;;2.20;;
49514;SDS011;35415;47.870;16.058;2023-04-30T14:46:45;3.35;;;2.40;;
49514;SDS011;35415;47.870;16.058;2023-04-30T14:49:13;2.60;;;2.40;;